Crockett Mills, TN

11:58 AM CDT on April 26, 2017 (GMT -0500)
Egghill Rd / Johnsons Grove Rd | | Change Station
Active Advisory: Flood Warning

Elev 315 ft 35.75 °N, 89.16 °W | Updated 30 seconds ago

Mostly Cloudy
Mostly Cloudy
83.3 °F
Feels Like 84 °F
N
11.7
Wind Variable Wind from South
Gusts 0.0 mph

Today
High -- | Low -- °F
--% Chance of Precip.
Yesterday
High -- | Low -- °F
Precip. -- in
Pressure 29.68 in
Visibility 10.0 miles
Clouds Scattered Clouds 3100 ft
Scattered Clouds 6000 ft
Heat Index 84 °F
Dew Point 66 °F
Humidity 49%
Rainfall Not available.
Snow Depth Not available.
6:09 AM 7:39 PM
New Moon, 0% visible
METAR KDYR 261656Z AUTO 17012G21KT 10SM SCT031 SCT060 26/18 A2964 RMK AO2 SLP048 T02560178
Pressure 29.68 in
Visibility 10.0 miles
Clouds Scattered Clouds 3100 ft
Scattered Clouds 6000 ft
Heat Index 84 °F
Dew Point 66 °F
Humidity 49%
Rainfall Not available.
Snow Depth Not available.
6:09 AM 7:39 PM
New Moon, 0% visible
METAR KDYR 261656Z AUTO 17012G21KT 10SM SCT031 SCT060 26/18 A2964 RMK AO2 SLP048 T02560178

Get Your Daily Forecast Email!

Thanks for signing up!

Be on the lookout for a verification email in your inbox.

You'll start receiving severe weather alerts in your inbox..

×

10-Day Weather Forecast

Almanac

Astronomy

Apr. 26, 2017 Rise Set
Actual Time
Civil Twilight
Nautical Twilight
Astronomical Twilight
Moon
Length of Visible Light
Length of Day
Tomorrow will be .
, % of the Moon is Illuminated

Today's Extremes

State Highs State Lows

Community

WunderPhotos

WunderBlog® & News

Nearby

Air Quality

  Air Quality AQ Index Pollutant
Not available.

Snow Depth

Station Depth Elevation

Earthquake Activity

City Distance Mag. Time & Date
Minimum magnitude displayed is 2.5.

Coastal Water Temperatures

Place Temperature

Stations

Nearby Weather Stations

Station Location Temp. Windchill Dew Point Humidity Wind Precip. Elev Updated Type
                   

Watches & Warnings

Flood Warning
Issued: 10:47 AM CDT Apr. 26, 2017 – National Weather Service

The National Weather Service in Memphis TN has issued a

* Flood Warning for
the S.F. Fork Forked Deer river near Halls
* from Thursday April 27 until further notice.
* At 10 am Wednesday the stage was... 6.2 feet.
* Minor flooding is forecast.
* Maximum forecast stage of 11.5 feet Friday April 28.
* Flood stage is 9.0 feet.
* Forecast to rise above flood stage by Thursday April 27 and
continue to rise to near 11.5 feet by Friday April 28.
At 11.5 feet, farmland near the river is flooded..


Lat... Lon 3595 8948 3600 8940 3589 8932 3584 8940